CDT,Max TemperatureF,Mean TemperatureF,Min TemperatureF,Max Dew PointF,MeanDew PointF,Min DewpointF,Max Humidity, Mean Humidity, Min Humidity, Max Sea Level PressureIn, Mean Sea Level PressureIn, Min Sea Level PressureIn, Max VisibilityMiles, Mean VisibilityMiles, Min VisibilityMiles, Max Wind SpeedMPH, Mean Wind SpeedMPH, Max Gust SpeedMPH,PrecipitationIn, CloudCover, Events, WindDirDegrees
2012-10-1,69,54,39,46,34,21,67,42,18,30.06,30.00,29.90,10,10,7,24,13,33,0.00,1,Rain,333
2012-10-2,73,52,30,30,22,14,80,38,10,30.01,29.88,29.77,10,10,2,20,7,25,0.00,0,,194
2012-10-3,80,58,37,37,25,16,65,32,9,29.85,29.78,29.69,10,10,5,20,7,25,0.00,0,,134
2012-10-4,51,44,37,39,32,25,93,63,50,30.24,30.08,29.71,10,10,3,33,25,43,0.00,7,,304
2012-10-5,46,36,26,27,23,21,86,58,37,30.27,30.23,30.21,10,10,10,23,13,32,0.00,3,,305
2012-10-6,42,33,23,28,23,18,81,64,42,30.37,30.30,30.25,10,10,10,20,13,25,0.00,5,,330
2012-10-7,57,39,21,21,16,9,86,48,14,30.24,30.02,29.82,10,10,7,20,8,26,0.00,0,,222
2012-10-8,66,50,33,37,28,16,58,42,27,29.81,29.69,29.58,10,10,10,28,10,34,0.00,4,Rain,245
2012-10-9,50,44,37,34,26,18,62,49,36,30.04,29.89,29.74,10,10,10,26,12,33,0.00,6,Rain,301
2012-10-10,57,40,24,28,23,16,93,50,21,30.09,29.98,29.76,10,10,7,20,8,24,0.00,1,,243
2012-10-11,55,39,23,34,25,12,87,56,25,30.41,30.17,29.77,10,10,10,22,13,26,0.00,0,,338
2012-10-12,55,35,15,34,13,9,80,44,15,30.42,30.22,29.88,10,10,7,28,8,33,0.00,2,,170
2012-10-13,62,50,37,46,40,34,87,67,44,29.88,29.73,29.66,10,8,1,23,10,30,0.00,1,Rain,171
2012-10-14,57,46,33,36,31,27,75,58,33,29.95,29.87,29.77,10,10,10,23,13,29,0.00,0,,325
2012-10-15,66,46,26,37,31,23,93,55,28,29.95,29.83,29.61,10,10,7,18,6,23,0.00,0,,184
2012-10-16,73,60,46,45,39,36,66,45,29,29.62,29.47,29.29,10,10,10,15,6,,0.00,1,,247
2012-10-17,55,50,44,50,42,37,88,75,54,29.35,29.25,29.10,10,10,5,30,13,37,0.08,7,Rain,293
2012-10-18,48,44,41,45,40,36,93,88,71,29.48,29.31,29.19,10,6,2,34,21,45,0.57,7,Rain,317
2012-10-19,42,42,41,39,38,37,93,87,81,29.77,29.68,29.49,10,8,2,36,24,47,0.16,7,Rain,332
2012-10-20,55,45,35,46,41,34,100,87,72,29.79,29.73,29.67,10,9,0,15,6,22,0.00,3,Fog,163
2012-10-21,53,46,39,45,42,37,93,83,71,29.96,29.79,29.65,10,10,5,16,9,,0.00,0,,38
2012-10-22,59,50,41,46,44,39,93,80,63,29.99,29.92,29.83,10,9,4,16,12,20,0.00,3,,40
2012-10-23,62,56,51,57,51,46,94,85,77,29.82,29.72,29.63,10,4,0,9,6,,0.00,4,Fog-Rain,145
2012-10-24,53,45,37,50,39,34,93,79,62,29.94,29.89,29.80,10,10,7,25,13,32,0.00,5,,340
2012-10-25,37,35,33,34,28,23,93,75,56,30.23,30.03,29.89,10,8,1,25,19,31,0.10,6,Snow,320
2012-10-26,39,36,30,25,23,19,80,60,49,30.38,30.33,30.23,10,10,10,23,14,29,0.00,7,,283
2012-10-27,44,32,19,28,23,18,93,71,36,30.34,30.29,30.23,10,10,10,13,6,20,0.00,2,,203
2012-10-28,48,39,30,32,29,27,93,71,50,30.27,30.22,30.16,10,10,10,14,6,16,0.00,3,,149
2012-10-29,55,45,35,30,29,28,81,61,36,30.18,30.15,30.11,10,10,10,18,13,24,0.00,2,,147
2012-10-30,46,40,30,30,27,23,86,65,43,30.17,30.13,30.07,10,10,10,13,8,,0.00,5,,131
2012-10-31,60,42,24,37,30,21,93,68,34,30.09,30.00,29.93,10,10,7,14,2,18,0.00,1,,275